createdAt,value
2022-10-12T00:00:35.036Z,101315.88
2022-10-12T00:04:36.555Z,101324.19
2022-10-12T00:08:39.791Z,101323.97
2022-10-12T00:12:41.387Z,101323.09
2022-10-12T00:16:42.878Z,101321.19
2022-10-12T00:20:44.958Z,101319.84
2022-10-12T00:24:47.057Z,101316.66
2022-10-12T00:28:49.274Z,101323.38
2022-10-12T00:32:50.851Z,101319.72
2022-10-12T00:36:52.421Z,101324.22
2022-10-12T00:40:53.928Z,101342.47
2022-10-12T00:44:55.664Z,101333.31
2022-10-12T00:49:15.243Z,101337.44
2022-10-12T00:53:20.581Z,101329.47
2022-10-12T00:57:23.982Z,101332.38
2022-10-12T01:01:25.671Z,101328.94
2022-10-12T01:05:27.874Z,101318.63
2022-10-12T01:09:29.924Z,101320.97
2022-10-12T01:13:31.977Z,101329.00
2022-10-12T01:18:05.994Z,101338.06
2022-10-12T01:22:11.807Z,101327.19
2022-10-12T01:26:26.224Z,101328.56
2022-10-12T01:30:36.120Z,101325.66
2022-10-12T01:34:55.535Z,101326.72
2022-10-12T01:39:21.366Z,101313.22
2022-10-12T01:43:23.575Z,101307.69
2022-10-12T01:47:25.154Z,101311.78
2022-10-12T01:51:40.601Z,101305.00
2022-10-12T01:56:11.463Z,101302.34
2022-10-12T02:00:15.594Z,101302.28
2022-10-12T02:04:19.856Z,101300.75
2022-10-12T02:08:26.306Z,101294.75
2022-10-12T02:12:30.032Z,101292.81
2022-10-12T02:16:39.440Z,101299.31
2022-10-12T02:20:42.362Z,101292.22
2022-10-12T02:24:47.568Z,101291.34
2022-10-12T02:28:50.397Z,101290.22
2022-10-12T02:33:02.474Z,101304.25
2022-10-12T02:37:23.856Z,101295.00
2022-10-12T02:41:30.547Z,101284.72
2022-10-12T02:45:34.418Z,101289.13
2022-10-12T02:49:37.127Z,101283.03
2022-10-12T02:53:39.042Z,101277.94
2022-10-12T02:57:40.675Z,101275.19
2022-10-12T03:01:42.677Z,101273.59
2022-10-12T03:05:44.488Z,101274.41
2022-10-12T03:09:45.979Z,101272.00
2022-10-12T03:13:47.505Z,101270.69
2022-10-12T03:17:49.004Z,101272.00
2022-10-12T03:21:50.514Z,101270.25
2022-10-12T03:25:52.081Z,101276.72
2022-10-12T03:29:53.647Z,101274.94
2022-10-12T03:33:55.213Z,101273.31
2022-10-12T03:37:56.746Z,101275.16
2022-10-12T03:41:58.270Z,101282.75
2022-10-12T03:45:59.766Z,101287.09
2022-10-12T03:50:01.504Z,101285.31
2022-10-12T03:54:03.040Z,101296.13
2022-10-12T03:58:04.631Z,101288.44
2022-10-12T04:02:06.171Z,101281.13
2022-10-12T04:06:07.830Z,101282.38
2022-10-12T04:10:09.495Z,101284.19
2022-10-12T04:14:11.046Z,101288.44
2022-10-12T04:18:12.844Z,101290.59
2022-10-12T04:22:14.659Z,101286.81
2022-10-12T04:26:16.521Z,101292.50
2022-10-12T04:30:18.615Z,101299.28
2022-10-12T04:34:20.522Z,101291.81
2022-10-12T04:38:22.021Z,101300.97
2022-10-12T04:42:23.615Z,101305.97
2022-10-12T04:46:25.557Z,101309.81
2022-10-12T04:50:30.011Z,101318.69
2022-10-12T04:54:32.795Z,101307.72
2022-10-12T04:58:34.392Z,101308.34
2022-10-12T05:02:36.131Z,101307.56
2022-10-12T05:06:37.685Z,101310.63
2022-10-12T05:10:39.997Z,101311.97
2022-10-12T05:14:44.125Z,101317.75
2022-10-12T05:18:45.647Z,101315.53
2022-10-12T05:22:47.177Z,101315.97
2022-10-12T05:26:48.705Z,101315.56
2022-10-12T05:30:51.292Z,101316.78
2022-10-12T05:34:52.834Z,101320.31
2022-10-12T05:38:54.593Z,101308.53
2022-10-12T05:42:56.072Z,101314.22
2022-10-12T05:46:57.702Z,101322.00
2022-10-12T05:50:59.224Z,101318.53
2022-10-12T05:55:00.730Z,101326.78
2022-10-12T05:59:03.632Z,101314.69
2022-10-12T06:03:05.217Z,101317.25
2022-10-12T06:07:07.090Z,101327.16
2022-10-12T06:11:08.575Z,101326.31
2022-10-12T06:15:10.332Z,101319.88
2022-10-12T06:19:12.083Z,101320.75
2022-10-12T06:23:13.654Z,101324.75
2022-10-12T06:27:17.391Z,101325.19
2022-10-12T06:31:18.893Z,101325.84
2022-10-12T06:35:20.925Z,101330.69
2022-10-12T06:39:25.412Z,101340.78
2022-10-12T06:43:28.202Z,101335.16
2022-10-12T06:47:29.679Z,101332.13
2022-10-12T06:51:31.272Z,101334.28
2022-10-12T06:55:32.884Z,101337.28
2022-10-12T06:59:34.395Z,101328.06
2022-10-12T07:03:35.970Z,101330.34
2022-10-12T07:07:38.063Z,101330.03
2022-10-12T07:11:39.635Z,101329.41
2022-10-12T07:15:41.264Z,101331.81
2022-10-12T07:19:42.794Z,101332.59
2022-10-12T07:23:46.215Z,101330.28
2022-10-12T07:27:48.598Z,101337.66
2022-10-12T07:31:52.057Z,101343.88
2022-10-12T07:36:12.764Z,101339.25
2022-10-12T07:40:15.884Z,101339.13
2022-10-12T07:44:18.604Z,101347.31
2022-10-12T07:48:20.394Z,101335.34
2022-10-12T07:52:21.930Z,101333.38
2022-10-12T07:56:23.443Z,101334.91
2022-10-12T08:00:25.395Z,101346.34
2022-10-12T08:04:26.931Z,101338.03
2022-10-12T08:08:28.459Z,101342.34
2022-10-12T08:12:30.134Z,101342.28
2022-10-12T08:16:31.685Z,101332.69
2022-10-12T08:20:33.207Z,101339.72
2022-10-12T08:24:35.767Z,101333.50
2022-10-12T08:28:37.488Z,101336.06
2022-10-12T08:32:39.124Z,101339.28
2022-10-12T08:36:40.622Z,101337.22
2022-10-12T08:41:20.903Z,101328.28
2022-10-12T08:45:22.308Z,101338.38
2022-10-12T08:49:26.330Z,101328.25
2022-10-12T08:53:35.674Z,101330.22
2022-10-12T08:57:37.196Z,101332.22
2022-10-12T09:02:01.855Z,101330.09
2022-10-12T09:06:14.713Z,101328.34
2022-10-12T09:10:44.938Z,101337.25
2022-10-12T09:14:49.750Z,101330.09
2022-10-12T09:19:08.272Z,101337.09
2022-10-12T09:23:29.424Z,101341.41
2022-10-12T09:27:31.839Z,101344.88
2022-10-12T09:31:36.146Z,101341.41
2022-10-12T09:35:37.704Z,101338.72
2022-10-12T09:39:40.690Z,101326.47
2022-10-12T09:43:42.387Z,101315.03
2022-10-12T09:48:17.203Z,101318.22
2022-10-12T09:52:29.723Z,101316.63
2022-10-12T09:56:46.552Z,101324.63
2022-10-12T10:01:16.434Z,101322.13
2022-10-12T10:05:28.028Z,101322.38
2022-10-12T10:09:33.397Z,101321.66
2022-10-12T10:13:37.794Z,101327.97
2022-10-12T10:17:39.462Z,101319.97
2022-10-12T10:21:40.994Z,101317.03
2022-10-12T10:25:42.730Z,101321.81
2022-10-12T10:29:45.464Z,101319.69
2022-10-12T10:34:15.882Z,101318.66
2022-10-12T10:38:17.470Z,101314.53
2022-10-12T10:42:32.554Z,101315.97
2022-10-12T10:46:36.417Z,101304.56
2022-10-12T10:50:41.242Z,101302.59
2022-10-12T10:54:42.898Z,101299.22
2022-10-12T10:58:45.868Z,101284.75
2022-10-12T11:03:13.175Z,101290.88
2022-10-12T11:07:31.504Z,101283.97
2022-10-12T11:11:37.415Z,101281.09
2022-10-12T11:15:48.555Z,101275.69
2022-10-12T11:19:54.784Z,101273.66
2022-10-12T11:24:09.706Z,101266.66
2022-10-12T11:28:15.619Z,101265.13
2022-10-12T11:32:34.769Z,101254.06
2022-10-12T11:36:51.256Z,101252.53
2022-10-12T11:41:33.864Z,101229.34
2022-10-12T11:45:36.612Z,101232.94
2022-10-12T11:50:01.258Z,101226.94
2022-10-12T11:54:24.619Z,101228.09
2022-10-12T11:58:48.797Z,101214.53
2022-10-12T12:03:08.633Z,101210.63
2022-10-12T12:07:43.286Z,101216.34
2022-10-12T12:11:44.869Z,101207.84
2022-10-12T12:15:52.391Z,101190.03
2022-10-12T12:19:55.102Z,101203.22
2022-10-12T12:23:56.784Z,101181.94
2022-10-12T12:28:05.770Z,101184.72
2022-10-12T12:32:07.394Z,101172.75
2022-10-12T12:36:12.531Z,101168.63
2022-10-12T12:40:23.973Z,101162.81
2022-10-12T12:44:41.968Z,101163.09
2022-10-12T12:48:43.572Z,101156.44
2022-10-12T12:52:45.429Z,101157.53
2022-10-12T12:57:05.264Z,101153.47
2022-10-12T13:01:31.326Z,101151.03
2022-10-12T13:06:18.198Z,101142.47
2022-10-12T13:10:28.653Z,101141.72
2022-10-12T13:15:02.623Z,101142.81
2022-10-12T13:19:12.522Z,101142.13
2022-10-12T13:23:19.402Z,101141.47
2022-10-12T13:27:26.564Z,101130.56
2022-10-12T13:31:35.472Z,101124.72
2022-10-12T13:35:43.055Z,101137.91
2022-10-12T13:39:47.007Z,101131.16
2022-10-12T13:43:48.622Z,101125.34
2022-10-12T13:47:50.174Z,101129.91
2022-10-12T13:51:59.437Z,101124.91
2022-10-12T13:56:05.607Z,101125.94
2022-10-12T14:00:20.305Z,101125.16
2022-10-12T14:04:22.166Z,101114.03
2022-10-12T14:08:26.378Z,101116.75
2022-10-12T14:12:30.295Z,101120.41
2022-10-12T14:16:31.796Z,101107.53
2022-10-12T14:20:39.079Z,101099.75
2022-10-12T14:24:40.741Z,101105.78
2022-10-12T14:28:42.348Z,101091.91
2022-10-12T14:32:44.780Z,101098.88
2022-10-12T14:36:46.312Z,101095.38
2022-10-12T14:40:47.832Z,101100.44
2022-10-12T14:44:50.562Z,101105.44
2022-10-12T14:48:52.045Z,101095.75
2022-10-12T14:53:04.952Z,101088.78
2022-10-12T14:57:15.148Z,101078.28
2022-10-12T15:01:16.957Z,101085.00
2022-10-12T15:05:21.631Z,101080.56
2022-10-12T15:09:23.140Z,101070.19
2022-10-12T15:13:24.654Z,101073.66
2022-10-12T15:17:26.436Z,101081.53
2022-10-12T15:21:28.101Z,101079.63
2022-10-12T15:25:39.972Z,101094.13
2022-10-12T15:29:42.291Z,101088.72
2022-10-12T15:33:44.059Z,101087.66
2022-10-12T15:37:45.803Z,101092.75
2022-10-12T15:41:47.365Z,101076.16
2022-10-12T15:45:49.613Z,101073.41
2022-10-12T15:49:51.197Z,101071.53
2022-10-12T15:53:54.042Z,101075.63
2022-10-12T15:57:56.372Z,101077.81
2022-10-12T16:01:58.390Z,101078.47
2022-10-12T16:05:59.898Z,101080.81
2022-10-12T16:10:01.699Z,101081.41
2022-10-12T16:14:03.237Z,101076.88
2022-10-12T16:18:05.259Z,101070.59
2022-10-12T16:22:06.882Z,101072.09
2022-10-12T16:26:12.161Z,101069.34
2022-10-12T16:30:14.748Z,101061.34
2022-10-12T16:34:16.249Z,101065.47
2022-10-12T16:38:20.059Z,101075.59
2022-10-12T16:42:22.295Z,101066.72
2022-10-12T16:46:23.871Z,101075.97
2022-10-12T16:50:25.870Z,101075.72
2022-10-12T16:54:28.867Z,101080.66
2022-10-12T16:58:30.448Z,101083.03
2022-10-12T17:02:32.070Z,101080.22
2022-10-12T17:06:33.693Z,101080.03
2022-10-12T17:10:40.633Z,101088.53
2022-10-12T17:14:42.274Z,101084.00
2022-10-12T17:18:43.808Z,101083.00
2022-10-12T17:22:45.368Z,101091.41
2022-10-12T17:26:47.689Z,101076.56
2022-10-12T17:30:49.377Z,101085.84
2022-10-12T17:34:50.963Z,101091.72
2022-10-12T17:38:54.194Z,101092.38
2022-10-12T17:42:55.938Z,101088.78
2022-10-12T17:46:58.733Z,101096.44
2022-10-12T17:51:09.596Z,101090.34
2022-10-12T17:55:24.306Z,101100.59
2022-10-12T17:59:32.756Z,101102.25
2022-10-12T18:03:34.297Z,101114.06
2022-10-12T18:07:37.460Z,101114.84
2022-10-12T18:11:39.433Z,101110.50
2022-10-12T18:15:43.473Z,101117.34
2022-10-12T18:19:47.049Z,101107.78
2022-10-12T18:23:49.126Z,101112.91
2022-10-12T18:27:51.511Z,101108.56
2022-10-12T18:31:54.011Z,101114.41
2022-10-12T18:35:55.619Z,101121.25
2022-10-12T18:39:57.614Z,101122.09
2022-10-12T18:44:01.229Z,101119.44
2022-10-12T18:48:06.889Z,101115.97
2022-10-12T18:52:08.701Z,101113.25
2022-10-12T18:56:10.934Z,101120.06
2022-10-12T19:00:12.951Z,101110.53
2022-10-12T19:04:14.893Z,101109.53
2022-10-12T19:08:16.438Z,101105.78
2022-10-12T19:12:19.823Z,101111.56
2022-10-12T19:16:22.440Z,101112.91
2022-10-12T19:20:24.272Z,101116.88
2022-10-12T19:24:25.896Z,101115.78
2022-10-12T19:28:27.553Z,101109.66
2022-10-12T19:32:29.051Z,101104.41
2022-10-12T19:36:32.751Z,101100.09
2022-10-12T19:40:35.660Z,101096.50
2022-10-12T19:44:37.189Z,101099.00
2022-10-12T19:48:39.903Z,101093.75
2022-10-12T19:52:41.564Z,101093.59
2022-10-12T19:56:43.379Z,101093.53
2022-10-12T20:00:45.096Z,101094.25
2022-10-12T20:04:46.720Z,101109.59
2022-10-12T20:08:48.791Z,101116.13
2022-10-12T20:12:50.412Z,101116.75
2022-10-12T20:16:52.229Z,101117.81
2022-10-12T20:20:54.488Z,101111.03
2022-10-12T20:24:55.999Z,101121.63
2022-10-12T20:28:57.533Z,101124.41
2022-10-12T20:33:00.703Z,101118.47
2022-10-12T20:37:02.290Z,101107.25
2022-10-12T20:41:06.387Z,101113.06
2022-10-12T20:45:09.472Z,101117.25
2022-10-12T20:49:11.144Z,101116.38
2022-10-12T20:53:12.799Z,101123.06
2022-10-12T20:57:14.374Z,101099.63
2022-10-12T21:01:17.165Z,101104.66
2022-10-12T21:05:18.840Z,101109.72
2022-10-12T21:09:20.442Z,101116.22
2022-10-12T21:13:22.206Z,101115.38
2022-10-12T21:17:23.913Z,101116.53
2022-10-12T21:21:25.510Z,101108.88
2022-10-12T21:25:27.328Z,101114.97
2022-10-12T21:29:29.030Z,101117.00
2022-10-12T21:33:30.540Z,101107.81
2022-10-12T21:37:32.080Z,101119.78
2022-10-12T21:41:33.699Z,101118.13
2022-10-12T21:45:35.318Z,101110.25
2022-10-12T21:49:36.800Z,101115.31
2022-10-12T21:53:39.245Z,101110.16
2022-10-12T21:57:40.902Z,101115.25
2022-10-12T22:01:42.535Z,101106.56
2022-10-12T22:05:44.620Z,101116.75
2022-10-12T22:09:46.178Z,101118.41
2022-10-12T22:13:48.100Z,101109.75
2022-10-12T22:17:49.600Z,101117.53
2022-10-12T22:21:52.080Z,101103.72
2022-10-12T22:25:59.081Z,101106.97
2022-10-12T22:30:00.733Z,101098.03
2022-10-12T22:34:02.407Z,101104.63
2022-10-12T22:38:07.673Z,101097.56
2022-10-12T22:42:09.361Z,101104.31
2022-10-12T22:46:11.000Z,101102.53
2022-10-12T22:50:12.556Z,101104.28
2022-10-12T22:54:14.092Z,101111.09
2022-10-12T22:58:16.086Z,101109.31
2022-10-12T23:02:17.930Z,101125.53
2022-10-12T23:06:19.679Z,101127.00
2022-10-12T23:10:21.818Z,101128.91
2022-10-12T23:14:23.335Z,101130.25
2022-10-12T23:18:24.909Z,101130.13
2022-10-12T23:22:27.965Z,101125.66
2022-10-12T23:26:29.710Z,101135.00
2022-10-12T23:30:31.338Z,101127.25
2022-10-12T23:34:32.840Z,101114.50
2022-10-12T23:38:35.983Z,101108.59
2022-10-12T23:42:37.442Z,101109.50
2022-10-12T23:46:38.973Z,101108.84
2022-10-12T23:50:40.865Z,101105.50
2022-10-12T23:54:42.352Z,101113.28
2022-10-12T23:58:43.873Z,101104.75
